Time;durP1;ratioP1;P1;durP2;ratioP2;P2;SDS_P1;SDS_P2;PMS_P1;PMS_P2;Temp;Humidity;BMP_temperature;BMP_pressure;BME280_temperature;BME280_humidity;BME280_pressure;Samples;Min_cycle;Max_cycle;Signal;HPM_P1;HPM_P2
2022/04/25 00:00:15;;;;;;;4.88;2.50;;;;;;;;;;5029206;28;20442;-69
2022/04/25 00:02:41;;;;;;;3.50;2.60;;;;;;;;;;5029976;28;20028;-69
2022/04/25 00:05:08;;;;;;;3.53;2.63;;;;;;;;;;5028596;28;20106;-69
2022/04/25 00:07:34;;;;;;;3.22;2.28;;;;;;;;;;5029294;28;20506;-69
2022/04/25 00:10:00;;;;;;;4.30;2.33;;;;;;;;;;5021379;28;20029;-69
2022/04/25 00:12:26;;;;;;;3.28;2.33;;;;;;;;;;5029526;28;20059;-69
2022/04/25 00:14:52;;;;;;;5.00;3.35;;;;;;;;;;5029669;28;20100;-68
2022/04/25 00:17:18;;;;;;;2.85;2.40;;;;;;;;;;5029294;28;20104;-69
2022/04/25 00:19:44;;;;;;;3.58;2.85;;;;;;;;;;5026061;28;20045;-69
2022/04/25 00:22:10;;;;;;;5.70;3.28;;;;;;;;;;5018710;28;20033;-69
2022/04/25 00:24:36;;;;;;;5.40;3.38;;;;;;;;;;5021482;28;20110;-69
2022/04/25 00:27:02;;;;;;;5.78;3.55;;;;;;;;;;5026557;28;20031;-70
2022/04/25 00:29:28;;;;;;;8.98;3.47;;;;;;;;;;5028758;28;20535;-69
2022/04/25 00:31:54;;;;;;;5.72;3.50;;;;;;;;;;5028391;28;20056;-69
2022/04/25 00:34:20;;;;;;;5.05;3.30;;;;;;;;;;5027893;28;20041;-69
2022/04/25 00:36:46;;;;;;;4.00;3.13;;;;;;;;;;5028806;28;20026;-69
2022/04/25 00:39:12;;;;;;;5.78;3.78;;;;;;;;;;5024108;28;20029;-69
2022/04/25 00:41:38;;;;;;;7.25;4.15;;;;;;;;;;5025906;28;20083;-69
2022/04/25 00:44:04;;;;;;;5.38;3.35;;;;;;;;;;5029085;28;20569;-68
2022/04/25 00:46:30;;;;;;;6.97;3.78;;;;;;;;;;5029316;28;20025;-69
2022/04/25 00:48:56;;;;;;;6.32;3.80;;;;;;;;;;5019032;28;20064;-70
2022/04/25 00:51:23;;;;;;;8.68;4.15;;;;;;;;;;5029067;28;20039;-69
2022/04/25 00:53:49;;;;;;;7.78;3.97;;;;;;;;;;5020156;28;20026;-68
2022/04/25 00:56:15;;;;;;;7.32;4.05;;;;;;;;;;5029261;28;20388;-69
2022/04/25 00:58:43;;;;;;;5.85;3.70;;;;;;;;;;5027934;28;20028;-70
2022/04/25 01:01:09;;;;;;;8.05;4.80;;;;;;;;;;5028678;28;20021;-69
2022/04/25 01:03:35;;;;;;;5.28;3.33;;;;;;;;;;5027685;28;20108;-70
2022/04/25 01:06:01;;;;;;;7.50;4.45;;;;;;;;;;5019297;28;20017;-69
2022/04/25 01:08:27;;;;;;;5.57;3.80;;;;;;;;;;5027894;28;20087;-69
2022/04/25 01:10:53;;;;;;;5.30;3.65;;;;;;;;;;5028594;28;20061;-69
2022/04/25 01:13:19;;;;;;;5.82;3.72;;;;;;;;;;5029210;28;20329;-69
2022/04/25 01:15:45;;;;;;;7.07;4.13;;;;;;;;;;5028569;28;20029;-69
2022/04/25 01:18:11;;;;;;;9.60;4.50;;;;;;;;;;5028874;28;20028;-68
2022/04/25 01:20:37;;;;;;;7.97;4.47;;;;;;;;;;5027099;28;20037;-68
2022/04/25 01:28:38;;;;;;;7.43;4.68;;;;;;;;;;5027685;28;20084;-69
2022/04/25 01:31:04;;;;;;;7.95;4.82;;;;;;;;;;5020809;28;20022;-72
2022/04/25 01:33:31;;;;;;;6.38;4.15;;;;;;;;;;5020057;28;20041;-69
2022/04/25 01:35:57;;;;;;;7.07;4.10;;;;;;;;;;5026856;28;20026;-69
2022/04/25 01:38:23;;;;;;;7.35;5.10;;;;;;;;;;5027756;28;20018;-69
2022/04/25 01:40:49;;;;;;;8.45;4.25;;;;;;;;;;5028770;28;20037;-70
2022/04/25 01:43:15;;;;;;;6.75;4.10;;;;;;;;;;5031714;28;20056;-69
2022/04/25 01:45:41;;;;;;;7.65;4.55;;;;;;;;;;5007938;28;20057;-69
2022/04/25 01:48:07;;;;;;;7.18;4.38;;;;;;;;;;5027284;28;20022;-69
2022/04/25 01:50:33;;;;;;;7.63;4.38;;;;;;;;;;5019623;28;20088;-69
2022/04/25 01:52:59;;;;;;;8.63;5.15;;;;;;;;;;5020296;28;20034;-69
2022/04/25 01:55:25;;;;;;;8.35;4.80;;;;;;;;;;5028475;28;20029;-69
2022/04/25 01:57:51;;;;;;;8.25;4.63;;;;;;;;;;5027587;28;20104;-69
2022/04/25 02:00:17;;;;;;;7.53;4.38;;;;;;;;;;5030526;28;20195;-69
2022/04/25 02:02:43;;;;;;;6.22;4.15;;;;;;;;;;5030010;28;20075;-69
2022/04/25 02:05:09;;;;;;;7.38;4.07;;;;;;;;;;5020264;28;20029;-69
2022/04/25 02:07:35;;;;;;;6.78;3.95;;;;;;;;;;5028440;28;20032;-70
2022/04/25 02:10:02;;;;;;;10.43;4.40;;;;;;;;;;5020481;28;20087;-69
2022/04/25 02:12:28;;;;;;;7.80;4.55;;;;;;;;;;5028317;28;20030;-69
2022/04/25 02:14:54;;;;;;;8.15;5.20;;;;;;;;;;5029584;28;20497;-69
2022/04/25 02:17:20;;;;;;;6.35;4.13;;;;;;;;;;5020159;28;20096;-69
2022/04/25 02:19:46;;;;;;;12.65;4.45;;;;;;;;;;5030269;28;20083;-69
2022/04/25 02:22:13;;;;;;;6.45;4.03;;;;;;;;;;5030372;28;20025;-69
2022/04/25 02:24:39;;;;;;;7.45;4.43;;;;;;;;;;5029199;28;20057;-69
2022/04/25 02:30:12;;;;;;;6.63;4.10;;;;;;;;;;5036713;28;20052;-69
2022/04/25 02:41:54;;;;;;;7.18;4.25;;;;;;;;;;5033664;28;20176;-69
2022/04/25 02:44:20;;;;;;;7.25;4.57;;;;;;;;;;5032405;28;20548;-69
2022/04/25 02:46:46;;;;;;;7.90;4.93;;;;;;;;;;5031743;28;20474;-68
2022/04/25 02:49:12;;;;;;;8.05;4.50;;;;;;;;;;5031335;28;20091;-69
2022/04/25 02:51:38;;;;;;;6.43;4.18;;;;;;;;;;5030451;28;20072;-68
2022/04/25 02:54:04;;;;;;;8.30;4.47;;;;;;;;;;5035864;28;20285;-69
2022/04/25 02:56:31;;;;;;;11.05;4.53;;;;;;;;;;5031705;28;20063;-68
2022/04/25 02:58:57;;;;;;;8.43;4.85;;;;;;;;;;5030231;28;20113;-69
2022/04/25 03:01:23;;;;;;;10.65;4.43;;;;;;;;;;5031850;28;20021;-69
2022/04/25 03:03:49;;;;;;;8.35;5.10;;;;;;;;;;5028837;28;20048;-69
2022/04/25 03:06:15;;;;;;;8.48;4.90;;;;;;;;;;5022948;28;20029;-69
2022/04/25 03:08:41;;;;;;;8.60;5.05;;;;;;;;;;5021741;28;20387;-68
2022/04/25 03:11:08;;;;;;;15.15;7.38;;;;;;;;;;5030932;28;20028;-69
2022/04/25 03:13:34;;;;;;;17.23;9.10;;;;;;;;;;5031632;28;20104;-68
2022/04/25 03:16:01;;;;;;;15.55;9.00;;;;;;;;;;5013430;28;20028;-68
2022/04/25 03:18:29;;;;;;;17.85;10.50;;;;;;;;;;5012081;28;20064;-68
2022/04/25 03:20:54;;;;;;;22.17;11.35;;;;;;;;;;5028693;28;20482;-69
2022/04/25 03:23:21;;;;;;;20.77;10.80;;;;;;;;;;5030512;28;20030;-69
2022/04/25 03:25:48;;;;;;;17.13;10.68;;;;;;;;;;5029651;28;20029;-72
2022/04/25 03:28:14;;;;;;;17.65;10.13;;;;;;;;;;5012249;28;20025;-69
2022/04/25 03:30:41;;;;;;;18.25;10.32;;;;;;;;;;5012586;28;20486;-69
2022/04/25 03:33:11;;;;;;;16.38;9.98;;;;;;;;;;5030435;28;20025;-69
2022/04/25 03:35:37;;;;;;;20.02;10.68;;;;;;;;;;5028514;28;20116;-69
2022/04/25 03:38:05;;;;;;;19.95;10.80;;;;;;;;;;5030012;28;20354;-69
2022/04/25 03:40:31;;;;;;;15.18;9.15;;;;;;;;;;5030908;28;20041;-69
2022/04/25 03:42:57;;;;;;;17.30;10.75;;;;;;;;;;5030080;28;20433;-69
2022/04/25 03:45:23;;;;;;;17.50;10.05;;;;;;;;;;5030646;28;20022;-68
2022/04/25 03:47:49;;;;;;;17.27;10.05;;;;;;;;;;5029046;28;20053;-69
2022/04/25 03:50:16;;;;;;;17.38;10.35;;;;;;;;;;5029533;28;20060;-69
2022/04/25 03:52:42;;;;;;;16.38;10.25;;;;;;;;;;5029269;28;20036;-69
2022/04/25 03:57:59;;;;;;;;;;;;;;;;;;4987855;28;20026;-69
2022/04/25 04:00:25;;;;;;;21.38;10.63;;;;;;;;;;5023344;28;19914;-68
2022/04/25 04:02:51;;;;;;;15.40;9.30;;;;;;;;;;5028216;28;20471;-68
2022/04/25 04:05:18;;;;;;;18.10;10.40;;;;;;;;;;5030038;28;20072;-69
2022/04/25 04:07:44;;;;;;;17.38;10.38;;;;;;;;;;5020410;28;20033;-70
2022/04/25 04:10:11;;;;;;;19.33;10.50;;;;;;;;;;5030234;28;20360;-68
2022/04/25 04:12:38;;;;;;;15.43;9.68;;;;;;;;;;5029244;28;20459;-69
2022/04/25 04:15:05;;;;;;;18.02;9.55;;;;;;;;;;5012081;28;20026;-69
2022/04/25 04:17:31;;;;;;;19.08;10.07;;;;;;;;;;5029764;28;20075;-68
2022/04/25 04:19:57;;;;;;;15.82;9.90;;;;;;;;;;5029613;28;20038;-68
2022/04/25 04:22:25;;;;;;;14.95;9.55;;;;;;;;;;5032162;28;20034;-69
2022/04/25 04:24:51;;;;;;;18.48;10.13;;;;;;;;;;5029528;28;20410;-69
2022/04/25 04:27:17;;;;;;;17.33;9.77;;;;;;;;;;5010867;28;20021;-68
2022/04/25 04:29:44;;;;;;;15.70;9.70;;;;;;;;;;5029418;28;20025;-69
2022/04/25 04:32:10;;;;;;;13.45;9.32;;;;;;;;;;5029359;28;20025;-69
2022/04/25 04:34:36;;;;;;;17.77;10.73;;;;;;;;;;5029627;28;20586;-68
2022/04/25 04:37:06;;;;;;;15.00;10.07;;;;;;;;;;5028381;28;20430;-68
2022/04/25 04:39:33;;;;;;;16.60;10.15;;;;;;;;;;5029063;28;20056;-69
2022/04/25 04:41:59;;;;;;;16.13;9.93;;;;;;;;;;5010804;28;20033;-69
2022/04/25 04:44:25;;;;;;;17.05;10.30;;;;;;;;;;5029593;28;20123;-69
2022/04/25 04:46:51;;;;;;;15.40;9.90;;;;;;;;;;5029158;28;20025;-68
2022/04/25 04:49:17;;;;;;;17.25;10.75;;;;;;;;;;5028887;28;20509;-69
2022/04/25 04:51:43;;;;;;;16.98;10.25;;;;;;;;;;5009526;28;20118;-69
2022/04/25 04:54:10;;;;;;;17.23;9.98;;;;;;;;;;5028126;28;20075;-68
2022/04/25 04:56:36;;;;;;;17.23;10.75;;;;;;;;;;5029520;28;20026;-68
2022/04/25 04:59:03;;;;;;;16.00;9.70;;;;;;;;;;5008623;28;20054;-69
2022/04/25 05:01:29;;;;;;;17.85;10.30;;;;;;;;;;5024720;28;20526;-69
2022/04/25 05:03:58;;;;;;;17.60;9.70;;;;;;;;;;5028604;28;20053;-68
2022/04/25 05:06:24;;;;;;;16.13;9.60;;;;;;;;;;5026775;28;20052;-71
2022/04/25 05:08:50;;;;;;;16.70;10.00;;;;;;;;;;5018894;28;20099;-71
2022/04/25 05:11:16;;;;;;;19.50;9.40;;;;;;;;;;5020998;28;20051;-71
2022/04/25 05:13:42;;;;;;;17.65;11.05;;;;;;;;;;5028054;28;20467;-72
2022/04/25 05:16:08;;;;;;;22.25;10.32;;;;;;;;;;5021202;28;20029;-72
2022/04/25 05:18:34;;;;;;;19.05;11.27;;;;;;;;;;5028150;28;20067;-70
2022/04/25 05:21:03;;;;;;;16.42;10.85;;;;;;;;;;5028040;28;20434;-71
2022/04/25 05:23:30;;;;;;;17.98;10.60;;;;;;;;;;5027322;28;20033;-71
2022/04/25 05:25:56;;;;;;;50.90;24.17;;;;;;;;;;5023215;28;20318;-71
2022/04/25 05:28:22;;;;;;;17.80;11.10;;;;;;;;;;5028198;28;20083;-71
2022/04/25 05:30:49;;;;;;;20.95;10.65;;;;;;;;;;5028157;28;20067;-71
2022/04/25 05:33:17;;;;;;;26.50;12.27;;;;;;;;;;5029463;28;20184;-71
2022/04/25 05:35:44;;;;;;;17.77;10.18;;;;;;;;;;5028490;28;20022;-71
2022/04/25 05:38:10;;;;;;;19.98;10.95;;;;;;;;;;5005037;28;20034;-72
2022/04/25 05:40:36;;;;;;;21.70;11.52;;;;;;;;;;5025242;28;20029;-71
2022/04/25 05:43:03;;;;;;;17.02;10.90;;;;;;;;;;5029026;28;20026;-71
2022/04/25 05:45:30;;;;;;;16.55;9.73;;;;;;;;;;5028862;28;20025;-72
2022/04/25 05:47:57;;;;;;;22.42;10.57;;;;;;;;;;5027462;28;20140;-71
2022/04/25 05:53:08;;;;;;;19.30;11.52;;;;;;;;;;5025346;28;20060;-71
2022/04/25 05:55:34;;;;;;;18.13;11.18;;;;;;;;;;5032246;28;20026;-72
2022/04/25 05:58:03;;;;;;;19.77;10.98;;;;;;;;;;5031526;28;20021;-72
2022/04/25 06:00:30;;;;;;;16.70;11.30;;;;;;;;;;5032539;28;20041;-72
2022/04/25 06:02:57;;;;;;;17.98;11.23;;;;;;;;;;5014297;28;20382;-72
2022/04/25 06:05:23;;;;;;;17.63;11.10;;;;;;;;;;5032702;28;20409;-71
2022/04/25 06:07:52;;;;;;;19.98;10.50;;;;;;;;;;5030854;28;20041;-72
2022/04/25 06:10:19;;;;;;;19.73;11.32;;;;;;;;;;5033102;28;20018;-72
2022/04/25 06:12:50;;;;;;;19.35;11.00;;;;;;;;;;5031751;28;20025;-71
2022/04/25 06:15:16;;;;;;;19.77;10.13;;;;;;;;;;5014701;28;20053;-71
2022/04/25 06:17:42;;;;;;;17.20;11.13;;;;;;;;;;5032486;28;20030;-71
2022/04/25 06:20:09;;;;;;;21.63;10.93;;;;;;;;;;5032151;28;20034;-71
2022/04/25 06:22:35;;;;;;;26.30;13.00;;;;;;;;;;5034855;28;20033;-71
2022/04/25 06:25:01;;;;;;;23.10;12.25;;;;;;;;;;5022885;28;20104;-73
2022/04/25 06:27:28;;;;;;;25.77;13.43;;;;;;;;;;5031631;28;20901;-72
2022/04/25 06:29:54;;;;;;;19.95;12.07;;;;;;;;;;5031034;28;20029;-71
2022/04/25 06:32:20;;;;;;;21.67;13.75;;;;;;;;;;5031824;28;20021;-72
2022/04/25 06:34:47;;;;;;;19.15;11.80;;;;;;;;;;5023024;28;20030;-72
2022/04/25 06:37:13;;;;;;;18.15;10.82;;;;;;;;;;5030063;28;20077;-72
2022/04/25 06:39:39;;;;;;;21.50;11.38;;;;;;;;;;5024482;28;20594;-72
2022/04/25 06:42:06;;;;;;;23.92;12.77;;;;;;;;;;5031645;28;20018;-72
2022/04/25 06:44:32;;;;;;;20.30;11.43;;;;;;;;;;5031265;28;20052;-71
2022/04/25 06:46:58;;;;;;;22.60;12.52;;;;;;;;;;5030489;28;20084;-72
2022/04/25 06:49:24;;;;;;;18.70;10.90;;;;;;;;;;5031261;28;20553;-72
2022/04/25 06:51:56;;;;;;;17.02;9.93;;;;;;;;;;5031329;28;20032;-71
2022/04/25 06:54:24;;;;;;;16.25;10.60;;;;;;;;;;5029072;28;20037;-72
2022/04/25 06:56:51;;;;;;;17.70;10.98;;;;;;;;;;5030732;28;20049;-72
2022/04/25 06:59:17;;;;;;;13.95;9.68;;;;;;;;;;5013580;28;20605;-72
2022/04/25 07:01:43;;;;;;;15.70;9.35;;;;;;;;;;5021524;28;20040;-72
2022/04/25 07:04:11;;;;;;;16.88;10.25;;;;;;;;;;5030865;28;20021;-72
2022/04/25 07:06:37;;;;;;;15.25;8.98;;;;;;;;;;5031285;28;20080;-71
2022/04/25 07:09:04;;;;;;;17.77;10.27;;;;;;;;;;5029727;28;20030;-71
2022/04/25 07:11:30;;;;;;;19.17;10.32;;;;;;;;;;5031228;28;20025;-72
2022/04/25 07:13:56;;;;;;;14.00;7.55;;;;;;;;;;5030459;28;20026;-71
2022/04/25 07:16:27;;;;;;;17.80;9.23;;;;;;;;;;5030877;28;20021;-72
2022/04/25 07:18:54;;;;;;;13.88;9.10;;;;;;;;;;5021076;28;20477;-72
2022/04/25 07:29:34;;;;;;;13.10;8.77;;;;;;;;;;5030108;28;20111;-72
2022/04/25 07:32:00;;;;;;;15.73;9.07;;;;;;;;;;5030420;28;20364;-72
2022/04/25 07:34:26;;;;;;;14.93;9.82;;;;;;;;;;5004777;28;20377;-72
2022/04/25 07:36:53;;;;;;;15.32;10.07;;;;;;;;;;5029540;28;20025;-72
2022/04/25 07:42:25;;;;;;;16.30;10.02;;;;;;;;;;5034724;28;20217;-72
2022/04/25 07:44:51;;;;;;;15.45;9.65;;;;;;;;;;5031938;28;20025;-72
2022/04/25 07:47:17;;;;;;;17.55;10.57;;;;;;;;;;5029612;28;20025;-73
2022/04/25 07:49:43;;;;;;;17.20;9.90;;;;;;;;;;5030297;28;20104;-72
2022/04/25 07:52:09;;;;;;;14.15;8.75;;;;;;;;;;5029716;28;20025;-72
2022/04/25 07:54:35;;;;;;;15.27;8.27;;;;;;;;;;5010820;28;20045;-72
2022/04/25 07:57:03;;;;;;;15.48;9.27;;;;;;;;;;5011702;28;20113;-72
2022/04/25 07:59:29;;;;;;;15.73;9.18;;;;;;;;;;5029980;28;20128;-72
2022/04/25 08:01:55;;;;;;;14.88;9.48;;;;;;;;;;5011706;28;20037;-72
2022/04/25 08:04:21;;;;;;;14.70;9.55;;;;;;;;;;5029334;28;20485;-72
2022/04/25 08:06:47;;;;;;;14.85;9.07;;;;;;;;;;5029453;28;20036;-72
2022/04/25 08:09:15;;;;;;;16.05;9.40;;;;;;;;;;5028960;28;20026;-72
2022/04/25 08:11:41;;;;;;;16.58;10.30;;;;;;;;;;5029532;28;20025;-72
2022/04/25 08:19:37;;;;;;;15.10;9.45;;;;;;;;;;5029089;28;20048;-72
2022/04/25 08:22:09;;;;;;;16.73;9.88;;;;;;;;;;5029180;28;20037;-72
2022/04/25 08:24:36;;;;;;;12.82;8.82;;;;;;;;;;5021414;28;20038;-72
2022/04/25 08:27:03;;;;;;;18.08;10.70;;;;;;;;;;5028599;28;20021;-72
2022/04/25 08:29:29;;;;;;;19.38;10.32;;;;;;;;;;5029101;28;20071;-72
2022/04/25 08:31:55;;;;;;;16.58;10.57;;;;;;;;;;5028605;28;20061;-72
2022/04/25 08:34:21;;;;;;;17.55;10.15;;;;;;;;;;5029831;28;20033;-72
2022/04/25 08:36:47;;;;;;;19.58;10.65;;;;;;;;;;5011493;28;20457;-72
2022/04/25 08:39:13;;;;;;;16.05;9.43;;;;;;;;;;5027371;28;20073;-71
2022/04/25 08:41:41;;;;;;;14.15;7.47;;;;;;;;;;5028640;28;20098;-73
2022/04/25 08:44:07;;;;;;;18.60;9.45;;;;;;;;;;5029023;28;20037;-71
2022/04/25 08:46:34;;;;;;;16.63;10.00;;;;;;;;;;5029212;28;20025;-72
2022/04/25 08:49:01;;;;;;;15.13;9.25;;;;;;;;;;5028714;28;20032;-71
2022/04/25 08:51:28;;;;;;;17.05;9.80;;;;;;;;;;5029418;28;20087;-71
2022/04/25 08:53:56;;;;;;;14.40;8.10;;;;;;;;;;5026316;28;20029;-73
2022/04/25 08:56:25;;;;;;;15.38;9.48;;;;;;;;;;5029264;28;20026;-72
2022/04/25 08:58:51;;;;;;;14.35;8.60;;;;;;;;;;5028127;28;20049;-72
2022/04/25 09:01:17;;;;;;;18.10;9.82;;;;;;;;;;5028740;28;20403;-73
2022/04/25 09:03:43;;;;;;;15.38;9.00;;;;;;;;;;5028187;28;20028;-72
2022/04/25 09:06:09;;;;;;;14.98;8.90;;;;;;;;;;5029343;28;20058;-72
2022/04/25 09:08:36;;;;;;;18.23;9.07;;;;;;;;;;5027321;28;20108;-72
2022/04/25 09:13:47;;;;;;;11.32;6.28;;;;;;;;;;5028845;28;20091;-72
2022/04/25 09:16:13;;;;;;;18.77;9.15;;;;;;;;;;5028998;28;20105;-71
2022/04/25 09:18:39;;;;;;;16.02;9.55;;;;;;;;;;5010084;28;20452;-74
2022/04/25 09:21:09;;;;;;;17.30;10.57;;;;;;;;;;5028716;28;20805;-71
2022/04/25 09:23:35;;;;;;;14.82;9.32;;;;;;;;;;5030187;28;20064;-72
2022/04/25 09:26:10;;;;;;;12.95;7.93;;;;;;;;;;5020502;28;20037;-72
2022/04/25 09:28:49;;;;;;;15.75;9.45;;;;;;;;;;5028634;28;20103;-72
2022/04/25 09:31:16;;;;;;;14.07;9.73;;;;;;;;;;5022429;28;20037;-72
2022/04/25 09:33:42;;;;;;;20.88;9.95;;;;;;;;;;5028325;28;20188;-72
2022/04/25 09:36:08;;;;;;;12.98;8.70;;;;;;;;;;5029062;28;20029;-71
2022/04/25 09:38:34;;;;;;;17.05;9.60;;;;;;;;;;5026740;28;20055;-72
2022/04/25 09:41:00;;;;;;;17.45;9.50;;;;;;;;;;5028574;28;20045;-72
2022/04/25 09:43:30;;;;;;;15.43;8.30;;;;;;;;;;5028749;28;20303;-71
2022/04/25 09:46:04;;;;;;;13.18;7.57;;;;;;;;;;5028640;28;20439;-72
2022/04/25 09:48:30;;;;;;;15.27;8.20;;;;;;;;;;5028819;28;20025;-72
2022/04/25 09:51:11;;;;;;;16.13;9.20;;;;;;;;;;5028410;28;20489;-72
2022/04/25 09:53:41;;;;;;;14.35;8.52;;;;;;;;;;5028022;28;20025;-72
2022/04/25 09:56:11;;;;;;;15.82;9.50;;;;;;;;;;5016583;28;20062;-72
2022/04/25 09:58:38;;;;;;;15.45;9.65;;;;;;;;;;5024864;28;20026;-71
2022/04/25 10:01:10;;;;;;;18.38;10.43;;;;;;;;;;5028387;28;20061;-71
2022/04/25 10:03:36;;;;;;;17.65;10.60;;;;;;;;;;5028537;28;20108;-71
2022/04/25 10:06:03;;;;;;;18.58;10.65;;;;;;;;;;5028813;28;20092;-72
2022/04/25 10:08:31;;;;;;;17.13;10.50;;;;;;;;;;5028021;28;20094;-71
2022/04/25 10:10:57;;;;;;;18.33;8.88;;;;;;;;;;5027722;28;20560;-71
2022/04/25 10:13:25;;;;;;;16.55;10.05;;;;;;;;;;5029074;28;20029;-71
2022/04/25 10:15:51;;;;;;;16.23;9.52;;;;;;;;;;5027277;28;20029;-72
2022/04/25 10:18:18;;;;;;;15.82;9.48;;;;;;;;;;5021345;28;20030;-71
2022/04/25 10:20:46;;;;;;;15.85;9.20;;;;;;;;;;5027937;28;20120;-71
2022/04/25 10:23:12;;;;;;;14.90;8.95;;;;;;;;;;5031401;28;20025;-71
2022/04/25 10:25:40;;;;;;;16.55;10.18;;;;;;;;;;5022619;28;20124;-71
2022/04/25 10:28:07;;;;;;;16.48;8.48;;;;;;;;;;5008154;28;20029;-71
2022/04/25 10:30:39;;;;;;;13.63;9.25;;;;;;;;;;5027532;28;20025;-71
2022/04/25 10:33:17;;;;;;;14.93;9.35;;;;;;;;;;5031192;28;20500;-71
2022/04/25 10:35:47;;;;;;;17.48;9.75;;;;;;;;;;5032484;28;20025;-72
2022/04/25 10:44:18;;;;;;;15.05;10.55;;;;;;;;;;5031968;28;20032;-71
2022/04/25 10:47:03;;;;;;;13.73;8.35;;;;;;;;;;5031466;28;20060;-70
2022/04/25 10:49:36;;;;;;;14.88;9.00;;;;;;;;;;5031152;28;20021;-71
2022/04/25 10:52:04;;;;;;;13.60;8.48;;;;;;;;;;5030786;28;20172;-71
2022/04/25 10:54:49;;;;;;;18.42;9.23;;;;;;;;;;5029379;28;20111;-71
2022/04/25 10:57:15;;;;;;;16.40;9.23;;;;;;;;;;5031312;28;20491;-71
2022/04/25 10:59:41;;;;;;;17.60;9.45;;;;;;;;;;5030943;28;20491;-71
2022/04/25 11:02:40;;;;;;;15.18;9.10;;;;;;;;;;5030789;28;20025;-70
2022/04/25 11:05:12;;;;;;;18.67;9.27;;;;;;;;;;4961932;28;20374;-71
2022/04/25 11:07:41;;;;;;;18.95;9.15;;;;;;;;;;4969079;28;20117;-71
2022/04/25 11:13:10;;;;;;;12.85;8.57;;;;;;;;;;5044982;22;20048;-70
2022/04/25 11:15:42;;;;;;;13.82;7.55;;;;;;;;;;5030748;28;20021;-70
2022/04/25 11:18:30;;;;;;;13.40;8.48;;;;;;;;;;5004572;28;20029;-70
2022/04/25 11:21:04;;;;;;;18.55;8.13;;;;;;;;;;5030976;28;20132;-70
2022/04/25 11:23:31;;;;;;;14.00;9.48;;;;;;;;;;5031270;28;20034;-70
2022/04/25 11:25:59;;;;;;;13.90;8.73;;;;;;;;;;5008771;28;20470;-71
2022/04/25 11:28:26;;;;;;;19.75;8.73;;;;;;;;;;5010027;28;20033;-70
2022/04/25 11:31:21;;;;;;;12.68;8.38;;;;;;;;;;5026717;28;20402;-70
2022/04/25 11:33:48;;;;;;;15.38;8.18;;;;;;;;;;4989953;28;20116;-71
2022/04/25 11:36:14;;;;;;;11.65;8.23;;;;;;;;;;5007220;28;20513;-70
2022/04/25 11:41:30;;;;;;;18.17;8.70;;;;;;;;;;5030164;28;20505;-70
2022/04/25 11:43:57;;;;;;;16.20;10.10;;;;;;;;;;5030544;28;20033;-71
2022/04/25 11:46:24;;;;;;;17.50;8.43;;;;;;;;;;5032295;28;20052;-70
2022/04/25 11:48:50;;;;;;;12.68;8.45;;;;;;;;;;5030950;28;20032;-70
2022/04/25 11:51:29;;;;;;;13.85;8.50;;;;;;;;;;5032267;28;20025;-72
2022/04/25 11:57:03;;;;;;;17.38;8.27;;;;;;;;;;5032120;28;20535;-70
2022/04/25 11:59:29;;;;;;;15.18;9.13;;;;;;;;;;5031194;28;20037;-70
2022/04/25 12:01:56;;;;;;;22.27;10.15;;;;;;;;;;4986652;28;20090;-71
2022/04/25 12:04:22;;;;;;;14.60;9.07;;;;;;;;;;5018336;28;20025;-70
2022/04/25 12:06:57;;;;;;;17.05;9.63;;;;;;;;;;5029898;28;20503;-70
2022/04/25 12:17:44;;;;;;;12.98;6.15;;;;;;;;;;5021854;28;20049;-70
2022/04/25 12:20:10;;;;;;;;;;;;;;;;;;5021989;28;20120;-70
2022/04/25 12:22:36;;;;;;;5.05;3.30;;;;;;;;;;5034157;28;20036;-70
2022/04/25 12:25:16;;;;;;;5.50;2.35;;;;;;;;;;5028789;28;20094;-70
2022/04/25 12:28:01;;;;;;;5.93;3.70;;;;;;;;;;5007021;28;20041;-73
2022/04/25 12:30:28;;;;;;;2.65;1.80;;;;;;;;;;5011233;28;20367;-70
2022/04/25 12:33:14;;;;;;;11.80;4.72;;;;;;;;;;5019503;28;20089;-70
2022/04/25 12:35:41;;;;;;;9.85;5.05;;;;;;;;;;5016647;28;20034;-70
2022/04/25 12:38:08;;;;;;;7.85;4.90;;;;;;;;;;5028628;28;20437;-71
2022/04/25 12:40:34;;;;;;;10.02;5.10;;;;;;;;;;5029592;28;20116;-70
2022/04/25 12:43:00;;;;;;;6.80;3.78;;;;;;;;;;5010019;28;20037;-70
2022/04/25 12:45:26;;;;;;;2.50;1.90;;;;;;;;;;5044571;28;20037;-70
2022/04/25 12:47:59;;;;;;;16.90;5.72;;;;;;;;;;5028145;28;20107;-71
2022/04/25 12:50:42;;;;;;;3.30;2.35;;;;;;;;;;5029491;28;20026;-70
2022/04/25 12:53:08;;;;;;;4.55;2.45;;;;;;;;;;5020895;28;20391;-71
2022/04/25 12:55:47;;;;;;;1.17;1.08;;;;;;;;;;5021298;28;20095;-71
2022/04/25 12:58:13;;;;;;;4.15;2.58;;;;;;;;;;5021423;28;20029;-70
2022/04/25 13:00:40;;;;;;;3.33;2.15;;;;;;;;;;5028858;28;20041;-71
2022/04/25 13:03:06;;;;;;;2.80;2.22;;;;;;;;;;5028406;28;20021;-71
2022/04/25 13:05:32;;;;;;;4.07;2.78;;;;;;;;;;5021746;28;20138;-71
2022/04/25 13:07:58;;;;;;;5.18;3.17;;;;;;;;;;5025276;28;20137;-71
2022/04/25 13:10:25;;;;;;;3.33;2.25;;;;;;;;;;5017670;28;20150;-70
2022/04/25 13:12:54;;;;;;;3.45;2.45;;;;;;;;;;5024730;28;20380;-71
2022/04/25 13:15:22;;;;;;;2.63;2.05;;;;;;;;;;5029213;28;20060;-70
2022/04/25 13:17:48;;;;;;;3.35;2.22;;;;;;;;;;5026681;28;20033;-71
2022/04/25 13:20:16;;;;;;;13.00;2.40;;;;;;;;;;5020464;28;20136;-70
2022/04/25 13:22:43;;;;;;;1.73;1.38;;;;;;;;;;5014537;28;20029;-70
2022/04/25 13:25:09;;;;;;;6.15;2.83;;;;;;;;;;5028615;28;20033;-70
2022/04/25 13:27:35;;;;;;;2.80;2.22;;;;;;;;;;5018535;28;20048;-70
2022/04/25 13:30:02;;;;;;;3.30;2.38;;;;;;;;;;5025892;28;20022;-70
2022/04/25 13:32:28;;;;;;;5.13;2.92;;;;;;;;;;5016761;28;20153;-70
2022/04/25 13:34:54;;;;;;;7.03;3.17;;;;;;;;;;5017774;28;20092;-70
2022/04/25 13:37:20;;;;;;;5.80;3.47;;;;;;;;;;5024222;28;20050;-70
2022/04/25 13:39:46;;;;;;;4.05;2.80;;;;;;;;;;5024412;28;20030;-70
2022/04/25 13:42:12;;;;;;;5.25;3.53;;;;;;;;;;5028583;28;20056;-71
2022/04/25 13:45:06;;;;;;;4.50;2.70;;;;;;;;;;5031762;28;20037;-70
2022/04/25 13:47:32;;;;;;;5.47;3.25;;;;;;;;;;5028794;28;20028;-70
2022/04/25 13:49:58;;;;;;;5.78;3.45;;;;;;;;;;5028235;28;20044;-70
2022/04/25 13:52:24;;;;;;;6.05;3.35;;;;;;;;;;5029043;28;20036;-70
2022/04/25 13:54:50;;;;;;;5.88;3.50;;;;;;;;;;5028025;28;20033;-71
2022/04/25 13:57:16;;;;;;;4.20;3.13;;;;;;;;;;5017068;28;20034;-70
2022/04/25 13:59:43;;;;;;;5.00;2.90;;;;;;;;;;5010573;28;20453;-70
2022/04/25 14:04:53;;;;;;;6.55;3.40;;;;;;;;;;5028473;28;20049;-70
2022/04/25 14:07:19;;;;;;;6.47;3.15;;;;;;;;;;5020506;28;20025;-71
2022/04/25 14:09:45;;;;;;;5.82;3.30;;;;;;;;;;5027306;28;20021;-70
2022/04/25 14:12:13;;;;;;;6.45;3.85;;;;;;;;;;5032221;28;20499;-70
2022/04/25 14:14:39;;;;;;;7.15;3.60;;;;;;;;;;5023945;28;20040;-70
2022/04/25 14:17:05;;;;;;;6.93;4.03;;;;;;;;;;5002954;28;20064;-70
2022/04/25 14:19:31;;;;;;;6.75;3.80;;;;;;;;;;5029896;28;20032;-70
2022/04/25 14:21:58;;;;;;;4.97;3.17;;;;;;;;;;5028968;28;20021;-70
2022/04/25 14:24:24;;;;;;;5.20;3.63;;;;;;;;;;5025858;28;20021;-70
2022/04/25 14:26:52;;;;;;;6.18;4.03;;;;;;;;;;5014971;28;20056;-70
2022/04/25 14:29:18;;;;;;;5.93;3.15;;;;;;;;;;5026030;28;20041;-70
2022/04/25 14:31:44;;;;;;;6.43;3.45;;;;;;;;;;5016864;28;20028;-72
2022/04/25 14:34:10;;;;;;;4.72;3.33;;;;;;;;;;5019281;28;20146;-70
2022/04/25 14:36:37;;;;;;;8.60;3.22;;;;;;;;;;5027320;28;20087;-70
2022/04/25 14:39:03;;;;;;;7.03;3.00;;;;;;;;;;5020121;28;20116;-70
2022/04/25 14:41:29;;;;;;;8.77;3.67;;;;;;;;;;5008190;28;20033;-70
2022/04/25 14:43:56;;;;;;;6.57;3.53;;;;;;;;;;5027688;28;20033;-70
2022/04/25 14:46:22;;;;;;;3.83;2.95;;;;;;;;;;5031833;28;20029;-70
2022/04/25 14:48:48;;;;;;;5.80;3.10;;;;;;;;;;5021925;28;20033;-70
2022/04/25 14:56:43;;;;;;;3.40;2.55;;;;;;;;;;5023458;28;20035;-70
2022/04/25 14:59:09;;;;;;;3.08;2.50;;;;;;;;;;5028936;28;20041;-70
2022/04/25 15:01:35;;;;;;;6.03;2.88;;;;;;;;;;5005177;28;20018;-70
2022/04/25 15:04:01;;;;;;;4.28;2.25;;;;;;;;;;5022174;28;20517;-70
2022/04/25 15:06:27;;;;;;;3.97;2.50;;;;;;;;;;5026216;28;20077;-70
2022/04/25 15:08:53;;;;;;;4.38;2.85;;;;;;;;;;5022492;28;20109;-70
2022/04/25 15:11:19;;;;;;;3.45;2.55;;;;;;;;;;5031335;28;20064;-70
2022/04/25 15:13:45;;;;;;;2.75;2.10;;;;;;;;;;5028166;28;20456;-70
2022/04/25 15:16:15;;;;;;;3.15;2.03;;;;;;;;;;5030445;28;20030;-71
2022/04/25 15:18:41;;;;;;;0.63;0.63;;;;;;;;;;5030428;28;20434;-70
2022/04/25 15:21:11;;;;;;;9.20;3.45;;;;;;;;;;5030648;28;20465;-70
2022/04/25 15:23:37;;;;;;;4.25;2.78;;;;;;;;;;5026276;28;20069;-70
2022/04/25 15:26:03;;;;;;;3.33;2.53;;;;;;;;;;5026832;28;20021;-71
2022/04/25 15:28:29;;;;;;;5.10;3.17;;;;;;;;;;5021244;28;20048;-70
2022/04/25 15:30:55;;;;;;;5.45;2.80;;;;;;;;;;5013926;28;20547;-70
2022/04/25 15:33:21;;;;;;;3.50;2.35;;;;;;;;;;5031113;28;20034;-70
2022/04/25 15:35:47;;;;;;;3.00;2.70;;;;;;;;;;5029033;28;20029;-71
2022/04/25 15:38:13;;;;;;;3.10;2.65;;;;;;;;;;5021267;28;20032;-70
2022/04/25 15:40:43;;;;;;;5.07;2.65;;;;;;;;;;5005079;28;20458;-70
2022/04/25 15:43:09;;;;;;;2.87;2.50;;;;;;;;;;5020677;28;20049;-71
2022/04/25 15:45:39;;;;;;;3.45;2.65;;;;;;;;;;5022204;28;20108;-70
2022/04/25 15:48:06;;;;;;;4.78;2.85;;;;;;;;;;5029687;28;20530;-70